createdAt,value
2022-12-01T00:01:09.682Z,9.15
2022-12-01T00:03:37.103Z,9.37
2022-12-01T00:06:16.036Z,9.31
2022-12-01T00:09:02.256Z,9.41
2022-12-01T00:11:29.109Z,9.45
2022-12-01T00:13:55.636Z,9.24
2022-12-01T00:16:22.384Z,9.50
2022-12-01T00:18:53.612Z,9.47
2022-12-01T00:21:22.786Z,9.47
2022-12-01T00:23:51.816Z,9.54
2022-12-01T00:26:20.031Z,9.24
2022-12-01T00:28:54.607Z,9.28
2022-12-01T00:31:22.101Z,9.20
2022-12-01T00:33:48.778Z,9.44
2022-12-01T00:36:15.525Z,9.45
2022-12-01T00:38:42.154Z,9.48
2022-12-01T00:41:08.871Z,9.41
2022-12-01T00:43:35.577Z,9.44
2022-12-01T00:46:02.315Z,9.58
2022-12-01T00:48:29.081Z,9.44
2022-12-01T00:50:55.790Z,9.52
2022-12-01T00:53:23.061Z,9.51
2022-12-01T00:55:49.687Z,9.62
2022-12-01T00:58:16.373Z,9.82
2022-12-01T01:00:43.155Z,9.32
2022-12-01T01:03:10.659Z,9.35
2022-12-01T01:05:38.781Z,9.45
2022-12-01T01:08:12.921Z,9.23
2022-12-01T01:10:44.272Z,9.24
2022-12-01T01:13:12.189Z,9.10
2022-12-01T01:15:39.213Z,9.15
2022-12-01T01:18:06.515Z,9.21
2022-12-01T01:20:33.568Z,9.29
2022-12-01T01:23:00.202Z,9.12
2022-12-01T01:25:26.821Z,9.21
2022-12-01T01:27:53.347Z,9.28
2022-12-01T01:30:20.875Z,9.08
2022-12-01T01:32:47.554Z,9.11
2022-12-01T01:35:14.157Z,9.51
2022-12-01T01:37:40.779Z,9.58
2022-12-01T01:40:07.959Z,9.25
2022-12-01T01:42:34.455Z,9.18
2022-12-01T01:45:01.072Z,9.18
2022-12-01T01:47:35.990Z,9.20
2022-12-01T01:50:09.710Z,9.38
2022-12-01T01:52:40.272Z,9.31
2022-12-01T01:55:07.899Z,9.10
2022-12-01T01:57:35.153Z,8.96
2022-12-01T02:00:09.251Z,9.01
2022-12-01T02:02:43.958Z,9.29
2022-12-01T02:05:17.903Z,9.31
2022-12-01T02:07:45.615Z,9.30
2022-12-01T02:10:14.564Z,9.38
2022-12-01T02:12:53.002Z,9.17
2022-12-01T02:15:43.058Z,9.13
2022-12-01T02:18:22.031Z,9.10
2022-12-01T02:21:25.615Z,9.11
2022-12-01T02:24:04.227Z,9.03
2022-12-01T02:26:43.770Z,9.14
2022-12-01T02:29:17.310Z,9.34
2022-12-01T02:32:02.898Z,9.31
2022-12-01T02:34:40.222Z,9.32
2022-12-01T02:37:10.195Z,9.01
2022-12-01T02:39:39.588Z,9.12
2022-12-01T02:42:40.158Z,9.08
2022-12-01T02:45:11.601Z,8.95
2022-12-01T02:47:41.223Z,9.02
2022-12-01T02:50:10.175Z,8.95
2022-12-01T02:52:38.687Z,8.80
2022-12-01T02:55:06.025Z,8.80
2022-12-01T02:57:32.530Z,8.75
2022-12-01T03:00:00.022Z,8.66
2022-12-01T03:02:48.826Z,8.59
2022-12-01T03:05:25.135Z,8.53
2022-12-01T03:08:06.128Z,8.59
2022-12-01T03:10:55.750Z,8.58
2022-12-01T03:13:57.890Z,8.67
2022-12-01T03:16:36.957Z,8.61
2022-12-01T03:19:13.041Z,8.80
2022-12-01T03:21:49.052Z,8.74
2022-12-01T03:24:19.557Z,8.67
2022-12-01T03:26:57.006Z,8.58
2022-12-01T03:29:46.458Z,8.66
2022-12-01T03:32:19.503Z,8.62
2022-12-01T03:35:11.091Z,8.52
2022-12-01T03:37:43.399Z,8.74
2022-12-01T03:40:14.738Z,8.89
2022-12-01T03:42:52.916Z,8.81
2022-12-01T03:45:31.475Z,8.85
2022-12-01T03:47:58.141Z,8.85
2022-12-01T03:50:35.628Z,8.61
2022-12-01T03:53:19.383Z,8.50
2022-12-01T03:55:52.405Z,8.62
2022-12-01T03:58:23.298Z,8.40
2022-12-01T04:00:53.395Z,8.44
2022-12-01T04:03:23.275Z,8.15
2022-12-01T04:05:49.872Z,8.12
2022-12-01T04:08:16.693Z,8.35
2022-12-01T04:10:43.415Z,8.66
2022-12-01T04:13:16.841Z,8.70
2022-12-01T04:15:43.823Z,8.62
2022-12-01T04:18:10.351Z,8.64
2022-12-01T04:20:36.857Z,8.64
2022-12-01T04:23:03.591Z,8.62
2022-12-01T04:25:30.139Z,8.68
2022-12-01T04:27:56.617Z,8.63
2022-12-01T04:30:23.512Z,8.56
2022-12-01T04:32:49.998Z,8.45
2022-12-01T04:35:16.552Z,8.31
2022-12-01T04:37:43.210Z,8.55
2022-12-01T04:40:10.214Z,8.41
2022-12-01T04:42:36.768Z,8.27
2022-12-01T04:45:03.862Z,8.25
2022-12-01T04:47:30.397Z,8.35
2022-12-01T04:49:56.914Z,8.52
2022-12-01T04:52:23.691Z,8.63
2022-12-01T04:54:50.179Z,8.70
2022-12-01T04:57:16.691Z,8.78
2022-12-01T04:59:43.308Z,8.56
2022-12-01T05:02:09.963Z,8.37
2022-12-01T05:04:38.797Z,8.41
2022-12-01T05:07:05.752Z,8.44
2022-12-01T05:09:32.291Z,8.58
2022-12-01T05:11:58.788Z,8.63
2022-12-01T05:14:25.412Z,8.81
2022-12-01T05:16:51.908Z,8.51
2022-12-01T05:19:37.119Z,8.29
2022-12-01T05:22:03.686Z,8.36
2022-12-01T05:24:30.190Z,8.43
2022-12-01T05:26:56.818Z,8.45
2022-12-01T05:29:23.436Z,8.54
2022-12-01T05:31:50.001Z,8.50
2022-12-01T05:34:16.805Z,8.46
2022-12-01T05:36:43.440Z,8.52
2022-12-01T05:39:09.942Z,8.38
2022-12-01T05:41:36.550Z,8.40
2022-12-01T05:44:03.515Z,8.09
2022-12-01T05:46:30.015Z,8.14
2022-12-01T05:48:56.672Z,8.30
2022-12-01T05:51:23.219Z,8.46
2022-12-01T05:53:49.954Z,8.51
2022-12-01T05:56:16.523Z,8.52
2022-12-01T05:58:43.128Z,8.62
2022-12-01T06:01:09.689Z,8.42
2022-12-01T06:03:36.313Z,8.54
2022-12-01T06:06:02.917Z,8.70
2022-12-01T06:08:29.483Z,8.47
2022-12-01T06:10:56.065Z,8.58
2022-12-01T06:13:22.636Z,8.76
2022-12-01T06:15:57.549Z,8.44
2022-12-01T06:18:24.933Z,8.57
2022-12-01T06:20:51.415Z,8.88
2022-12-01T06:23:18.141Z,8.65
2022-12-01T06:25:44.711Z,8.62
2022-12-01T06:28:11.180Z,8.92
2022-12-01T06:30:37.818Z,8.96
2022-12-01T06:33:04.471Z,8.78
2022-12-01T06:35:31.005Z,8.80
2022-12-01T06:37:57.631Z,8.73
2022-12-01T06:40:24.358Z,8.79
2022-12-01T06:42:50.836Z,8.42
2022-12-01T06:45:17.411Z,8.57
2022-12-01T06:47:44.003Z,8.65
2022-12-01T06:50:11.907Z,8.65
2022-12-01T06:52:38.535Z,8.62
2022-12-01T06:55:06.036Z,8.52
2022-12-01T06:57:32.774Z,8.68
2022-12-01T06:59:59.578Z,8.83
2022-12-01T07:02:26.649Z,8.59
2022-12-01T07:04:53.207Z,8.43
2022-12-01T07:07:19.902Z,8.48
2022-12-01T07:09:46.771Z,8.51
2022-12-01T07:12:13.468Z,8.73
2022-12-01T07:14:42.548Z,8.70
2022-12-01T07:17:09.932Z,8.74
2022-12-01T07:19:36.543Z,8.60
2022-12-01T07:22:03.261Z,8.76
2022-12-01T07:24:30.620Z,8.71
2022-12-01T07:26:57.115Z,8.65
2022-12-01T07:29:23.782Z,8.68
2022-12-01T07:31:50.331Z,8.49
2022-12-01T07:34:16.820Z,8.57
2022-12-01T07:36:43.381Z,8.56
2022-12-01T07:39:09.914Z,8.63
2022-12-01T07:41:36.432Z,8.53
2022-12-01T07:44:03.272Z,8.57
2022-12-01T07:46:30.000Z,8.35
2022-12-01T07:48:57.141Z,8.54
2022-12-01T07:51:25.520Z,8.65
2022-12-01T07:53:53.123Z,8.77
2022-12-01T07:56:20.929Z,8.59
2022-12-01T07:58:47.589Z,8.54
2022-12-01T08:01:16.792Z,8.83
2022-12-01T08:03:43.729Z,8.80
2022-12-01T08:06:11.809Z,8.55
2022-12-01T08:08:40.108Z,8.58
2022-12-01T08:11:18.999Z,8.64
2022-12-01T08:13:45.760Z,8.29
2022-12-01T08:16:14.833Z,8.27
2022-12-01T08:18:42.872Z,8.58
2022-12-01T08:21:12.348Z,8.66
2022-12-01T08:23:39.197Z,8.56
2022-12-01T08:26:09.226Z,8.62
2022-12-01T08:28:36.923Z,8.49
2022-12-01T08:31:18.292Z,8.48
2022-12-01T08:33:45.771Z,8.64
2022-12-01T08:36:12.353Z,8.70
2022-12-01T08:38:39.051Z,8.51
2022-12-01T08:41:08.347Z,8.60
2022-12-01T08:46:28.886Z,8.88
2022-12-01T08:48:57.863Z,8.97
2022-12-01T08:51:25.699Z,8.91
2022-12-01T08:53:52.343Z,9.01
2022-12-01T08:56:24.229Z,9.01
2022-12-01T08:58:51.779Z,9.05
2022-12-01T09:01:19.390Z,8.81
2022-12-01T09:03:46.860Z,8.81
2022-12-01T09:06:20.287Z,8.61
2022-12-01T09:08:47.496Z,8.71
2022-12-01T09:11:16.827Z,8.77
2022-12-01T09:13:45.422Z,8.42
2022-12-01T09:16:16.140Z,8.68
2022-12-01T09:18:44.364Z,8.84
2022-12-01T09:21:20.071Z,8.89
2022-12-01T09:23:47.269Z,8.98
2022-12-01T09:26:18.637Z,8.72
2022-12-01T09:28:50.131Z,8.59
2022-12-01T09:31:18.517Z,8.33
2022-12-01T09:33:45.162Z,8.25
2022-12-01T09:36:12.049Z,8.37
2022-12-01T09:38:39.090Z,8.56
2022-12-01T09:41:11.864Z,8.55
2022-12-01T09:43:45.959Z,8.88
2022-12-01T09:46:18.462Z,8.96
2022-12-01T09:48:51.476Z,9.21
2022-12-01T09:51:28.257Z,9.35
2022-12-01T09:53:58.375Z,9.45
2022-12-01T09:56:32.446Z,9.28
2022-12-01T09:59:02.341Z,9.42
2022-12-01T10:01:35.692Z,9.48
2022-12-01T10:04:28.603Z,9.69
2022-12-01T10:07:00.824Z,9.71
2022-12-01T10:09:41.548Z,9.87
2022-12-01T10:12:15.259Z,9.63
2022-12-01T10:14:45.507Z,9.78
2022-12-01T10:17:34.746Z,10.12
2022-12-01T10:20:25.050Z,10.19
2022-12-01T10:22:54.360Z,10.01
2022-12-01T10:25:28.914Z,10.09
2022-12-01T10:28:22.295Z,9.98
2022-12-01T10:30:51.399Z,9.92
2022-12-01T10:33:24.992Z,9.93
2022-12-01T10:35:52.756Z,9.82
2022-12-01T10:38:29.654Z,9.44
2022-12-01T10:40:59.959Z,9.37
2022-12-01T10:43:34.055Z,9.28
2022-12-01T10:46:05.892Z,9.17
2022-12-01T10:48:32.476Z,9.26
2022-12-01T10:51:15.897Z,9.35
2022-12-01T10:53:42.511Z,9.18
2022-12-01T10:56:16.158Z,9.28
2022-12-01T10:58:53.801Z,9.27
2022-12-01T11:01:24.748Z,9.56
2022-12-01T11:03:55.606Z,9.59
2022-12-01T11:06:25.937Z,9.76
2022-12-01T11:09:00.036Z,9.72
2022-12-01T11:11:28.647Z,9.72
2022-12-01T11:13:56.875Z,9.64
2022-12-01T11:16:44.853Z,9.58
2022-12-01T11:19:14.312Z,9.46
2022-12-01T11:21:52.910Z,9.25
2022-12-01T11:24:44.884Z,9.35
2022-12-01T11:27:21.276Z,9.35
2022-12-01T11:29:54.698Z,9.45
2022-12-01T11:32:23.473Z,9.31
2022-12-01T11:35:04.492Z,9.33
2022-12-01T11:37:50.480Z,9.60
2022-12-01T11:40:44.939Z,9.68
2022-12-01T11:43:43.743Z,9.70
2022-12-01T11:46:13.248Z,9.84
2022-12-01T11:48:40.484Z,9.77
2022-12-01T11:51:08.715Z,9.85
2022-12-01T11:53:38.152Z,9.89
2022-12-01T11:56:28.895Z,9.68
2022-12-01T11:59:06.544Z,9.33
2022-12-01T12:01:42.098Z,9.20
2022-12-01T12:04:09.138Z,9.19
2022-12-01T12:07:17.809Z,9.35
2022-12-01T12:10:03.540Z,9.59
2022-12-01T12:12:36.572Z,9.71
2022-12-01T12:15:16.317Z,9.49
2022-12-01T12:18:21.252Z,9.46
2022-12-01T12:21:15.851Z,9.26
2022-12-01T12:23:55.747Z,9.00
2022-12-01T12:26:27.023Z,9.06
2022-12-01T12:29:30.503Z,9.28
2022-12-01T12:32:23.392Z,9.31
2022-12-01T12:35:18.316Z,9.34
2022-12-01T12:38:00.354Z,9.25
2022-12-01T12:40:40.949Z,9.36
2022-12-01T12:43:10.518Z,9.23
2022-12-01T12:45:59.979Z,9.00
2022-12-01T12:48:29.355Z,9.24
2022-12-01T12:51:04.476Z,9.47
2022-12-01T12:53:41.110Z,9.51
2022-12-01T12:56:13.988Z,9.40
2022-12-01T12:58:57.574Z,9.25
2022-12-01T13:01:26.974Z,9.34
2022-12-01T13:03:56.453Z,9.23
2022-12-01T13:06:32.792Z,9.10
2022-12-01T13:09:08.174Z,9.01
2022-12-01T13:11:59.637Z,9.02
2022-12-01T13:14:37.167Z,9.08
2022-12-01T13:17:26.100Z,9.12
2022-12-01T13:19:52.589Z,9.05
2022-12-01T13:22:29.641Z,9.05
2022-12-01T13:24:56.532Z,9.05
2022-12-01T13:27:25.776Z,9.01
2022-12-01T13:29:54.032Z,9.38
2022-12-01T13:58:25.111Z,8.92
2022-12-01T14:00:51.875Z,9.06
2022-12-01T14:03:21.448Z,9.20
2022-12-01T14:05:57.711Z,8.87
2022-12-01T14:08:28.630Z,9.17
2022-12-01T14:11:07.306Z,9.13
2022-12-01T14:13:46.032Z,9.04
2022-12-01T14:16:12.908Z,8.99
2022-12-01T14:18:44.322Z,8.88
2022-12-01T14:21:12.490Z,8.91
2022-12-01T14:23:59.848Z,9.08
2022-12-01T14:26:28.698Z,9.06
2022-12-01T14:28:55.909Z,9.02
2022-12-01T14:31:24.628Z,9.06
2022-12-01T14:33:59.248Z,8.83
2022-12-01T14:40:18.039Z,8.75
2022-12-01T14:43:06.096Z,8.78
2022-12-01T14:45:40.087Z,8.73
2022-12-01T14:48:12.686Z,8.79
2022-12-01T14:50:46.950Z,8.75
2022-12-01T14:53:20.932Z,8.64
2022-12-01T14:56:14.850Z,8.69
2022-12-01T14:58:52.392Z,8.63
2022-12-01T15:01:20.861Z,8.38
2022-12-01T15:03:51.415Z,8.50
2022-12-01T15:06:24.544Z,8.67
2022-12-01T15:12:01.947Z,9.03
2022-12-01T15:14:35.063Z,8.90
2022-12-01T15:17:05.694Z,8.67
2022-12-01T15:19:34.618Z,8.58
2022-12-01T15:22:06.061Z,8.77
2022-12-01T15:24:34.290Z,8.60
2022-12-01T15:27:04.032Z,8.51
2022-12-01T15:29:58.718Z,8.60
2022-12-01T15:32:27.157Z,8.62
2022-12-01T15:34:55.671Z,8.74
2022-12-01T15:37:25.167Z,8.52
2022-12-01T15:40:00.905Z,8.43
2022-12-01T15:42:39.680Z,8.43
2022-12-01T15:45:15.284Z,8.53
2022-12-01T15:47:43.677Z,8.68
2022-12-01T15:50:31.299Z,8.52
2022-12-01T15:52:59.410Z,8.15
2022-12-01T15:55:30.882Z,8.29
2022-12-01T15:57:58.840Z,8.45
2022-12-01T16:00:26.285Z,8.30
2022-12-01T16:02:55.493Z,8.48
2022-12-01T16:05:29.198Z,8.29
2022-12-01T16:08:13.375Z,8.45
2022-12-01T16:10:40.612Z,8.41
2022-12-01T16:13:40.887Z,8.55
2022-12-01T16:16:30.223Z,8.34
2022-12-01T16:19:02.216Z,8.16
2022-12-01T16:21:32.991Z,8.36
2022-12-01T16:24:05.308Z,8.33
2022-12-01T16:26:33.479Z,8.23
2022-12-01T16:29:00.408Z,8.40
2022-12-01T16:31:27.509Z,8.12
2022-12-01T16:34:09.836Z,8.33
2022-12-01T16:36:45.488Z,8.14
2022-12-01T16:39:16.417Z,8.24
2022-12-01T16:41:47.940Z,8.12
2022-12-01T16:44:30.609Z,8.09
2022-12-01T16:46:57.485Z,8.21
2022-12-01T16:49:24.186Z,8.14
2022-12-01T16:51:56.042Z,8.13
2022-12-01T16:54:23.962Z,7.91
2022-12-01T16:56:51.334Z,8.00
2022-12-01T16:59:18.428Z,8.04
2022-12-01T17:01:45.179Z,8.01
2022-12-01T17:04:11.919Z,8.23
2022-12-01T17:06:38.791Z,8.03
2022-12-01T17:09:05.890Z,7.76
2022-12-01T17:11:33.139Z,7.93
2022-12-01T17:13:59.875Z,8.08
2022-12-01T17:16:27.078Z,7.98
2022-12-01T17:18:53.861Z,7.88
2022-12-01T17:21:20.521Z,7.91
2022-12-01T17:23:47.433Z,7.89
2022-12-01T17:26:19.737Z,8.11
2022-12-01T17:28:46.967Z,7.87
2022-12-01T17:31:14.454Z,8.05
2022-12-01T17:33:41.522Z,8.07
2022-12-01T17:36:11.588Z,7.82
2022-12-01T17:38:39.987Z,7.89
2022-12-01T17:41:09.512Z,7.91
2022-12-01T17:43:37.268Z,7.84
2022-12-01T17:46:05.809Z,7.84
2022-12-01T17:48:44.405Z,8.02
2022-12-01T17:51:12.855Z,7.82
2022-12-01T17:53:40.365Z,7.86
2022-12-01T17:56:12.634Z,7.93
2022-12-01T17:58:40.182Z,7.94
2022-12-01T18:01:12.965Z,7.83
2022-12-01T18:03:39.531Z,7.72
2022-12-01T18:06:06.437Z,7.78
2022-12-01T18:08:35.700Z,7.70
2022-12-01T18:11:07.809Z,7.97
2022-12-01T18:13:43.805Z,8.07
2022-12-01T18:16:17.000Z,8.00
2022-12-01T18:18:44.036Z,7.85
2022-12-01T18:21:14.615Z,8.13
2022-12-01T18:23:41.560Z,8.01
2022-12-01T18:26:15.932Z,8.17
2022-12-01T18:28:43.565Z,7.94
2022-12-01T18:31:12.944Z,8.07
2022-12-01T18:33:42.027Z,8.02
2022-12-01T18:36:14.410Z,7.90
2022-12-01T18:38:41.263Z,7.82
2022-12-01T18:41:08.317Z,7.79
2022-12-01T18:43:34.963Z,7.76
2022-12-01T18:46:04.087Z,7.73
2022-12-01T18:48:30.781Z,8.20
2022-12-01T18:51:03.001Z,7.96
2022-12-01T18:53:29.824Z,8.05
2022-12-01T18:55:56.504Z,8.18
2022-12-01T18:58:23.128Z,8.18
2022-12-01T19:00:49.834Z,8.17
2022-12-01T19:03:16.435Z,8.25
2022-12-01T19:05:43.196Z,8.28
2022-12-01T19:08:09.829Z,8.32
2022-12-01T19:10:36.433Z,8.31
2022-12-01T19:13:03.230Z,7.98
2022-12-01T19:15:29.890Z,7.84
2022-12-01T19:17:56.409Z,8.10
2022-12-01T19:20:23.048Z,8.26
2022-12-01T19:22:49.532Z,8.23
2022-12-01T19:25:16.065Z,8.05
2022-12-01T19:27:42.799Z,8.16
2022-12-01T19:30:09.806Z,7.94
2022-12-01T19:32:36.488Z,7.82
2022-12-01T19:35:03.722Z,7.58
2022-12-01T19:37:30.257Z,7.50
2022-12-01T19:39:56.764Z,7.73
2022-12-01T19:42:23.543Z,7.81
2022-12-01T19:44:50.534Z,7.58
2022-12-01T19:47:21.867Z,7.75
2022-12-01T19:49:49.080Z,7.56
2022-12-01T19:52:15.583Z,7.40
2022-12-01T19:54:42.739Z,7.64
2022-12-01T19:57:09.365Z,7.97
2022-12-01T19:59:35.924Z,7.89
2022-12-01T20:02:02.508Z,7.59
2022-12-01T20:04:29.268Z,7.47
2022-12-01T20:06:55.774Z,7.38
2022-12-01T20:09:22.689Z,7.50
2022-12-01T20:11:49.312Z,7.37
2022-12-01T20:14:15.995Z,7.47
2022-12-01T20:16:42.505Z,7.59
2022-12-01T20:19:10.558Z,7.65
2022-12-01T20:21:42.281Z,7.54
2022-12-01T20:24:13.201Z,7.86
2022-12-01T20:26:46.100Z,7.69
2022-12-01T20:29:24.522Z,7.62
2022-12-01T20:31:52.895Z,7.55
2022-12-01T20:34:32.309Z,7.83
2022-12-01T20:36:59.384Z,7.66
2022-12-01T20:39:26.989Z,7.54
2022-12-01T20:41:53.700Z,7.39
2022-12-01T20:44:20.667Z,7.60
2022-12-01T20:46:47.742Z,7.67
2022-12-01T20:49:16.085Z,7.79
2022-12-01T20:51:42.805Z,8.00
2022-12-01T20:54:29.279Z,7.55
2022-12-01T20:56:56.760Z,7.28
2022-12-01T20:59:23.690Z,7.39
2022-12-01T21:01:50.208Z,7.36
2022-12-01T21:04:17.833Z,7.21
2022-12-01T21:06:44.495Z,7.05
2022-12-01T21:09:13.024Z,6.96
2022-12-01T21:12:05.298Z,7.42
2022-12-01T21:14:47.438Z,7.46
2022-12-01T21:17:29.699Z,7.25
2022-12-01T21:20:02.462Z,7.34
2022-12-01T21:22:29.073Z,7.61
2022-12-01T21:25:06.962Z,7.60
2022-12-01T21:27:33.668Z,7.29
2022-12-01T21:30:00.804Z,7.25
2022-12-01T21:32:31.533Z,7.45
2022-12-01T21:35:07.721Z,7.34
2022-12-01T21:37:34.437Z,7.25
2022-12-01T21:40:00.977Z,7.16
2022-12-01T21:42:30.497Z,7.42
2022-12-01T21:44:57.708Z,7.12
2022-12-01T21:47:27.251Z,7.22
2022-12-01T21:49:59.567Z,7.37
2022-12-01T21:52:30.352Z,7.56
2022-12-01T21:55:23.409Z,7.51
2022-12-01T21:57:51.947Z,7.42
2022-12-01T22:00:21.673Z,7.31
2022-12-01T22:02:50.868Z,7.28
2022-12-01T22:05:38.172Z,7.22
2022-12-01T22:08:26.795Z,7.00
2022-12-01T22:11:02.046Z,7.18
2022-12-01T22:13:45.285Z,7.18
2022-12-01T22:16:25.932Z,7.34
2022-12-01T22:18:55.262Z,7.13
2022-12-01T22:21:21.703Z,7.12
2022-12-01T22:24:10.131Z,7.18
2022-12-01T22:26:47.819Z,7.40
2022-12-01T22:29:26.373Z,7.34
2022-12-01T22:32:22.214Z,7.52
2022-12-01T22:34:56.395Z,7.64
2022-12-01T22:37:39.630Z,7.70
2022-12-01T22:40:34.745Z,7.78
2022-12-01T22:43:21.102Z,7.67
2022-12-01T22:46:00.967Z,7.37
2022-12-01T22:48:27.534Z,7.23
2022-12-01T22:50:54.589Z,7.03
2022-12-01T22:53:31.089Z,7.32
2022-12-01T22:56:00.760Z,7.32
2022-12-01T22:58:32.122Z,7.33
2022-12-01T23:01:07.713Z,7.07
2022-12-01T23:03:34.315Z,6.87
2022-12-01T23:06:00.836Z,7.33
2022-12-01T23:08:27.427Z,7.30
2022-12-01T23:10:54.051Z,6.98
2022-12-01T23:13:23.217Z,7.32
2022-12-01T23:15:51.957Z,7.22
2022-12-01T23:18:28.312Z,7.41
2022-12-01T23:21:00.249Z,7.38
2022-12-01T23:23:31.930Z,7.55
2022-12-01T23:25:59.240Z,7.48
2022-12-01T23:28:25.804Z,7.41
2022-12-01T23:30:56.425Z,7.37
2022-12-01T23:33:31.676Z,7.45
2022-12-01T23:36:01.087Z,7.17
2022-12-01T23:38:38.054Z,7.24
2022-12-01T23:41:07.623Z,7.42
2022-12-01T23:43:43.055Z,7.38
2022-12-01T23:46:22.850Z,7.48
2022-12-01T23:48:57.357Z,7.36
2022-12-01T23:51:39.883Z,7.17
2022-12-01T23:54:23.671Z,7.01
2022-12-01T23:56:53.950Z,6.86
2022-12-01T23:59:21.330Z,7.10
